• Join FlightAware (Why Join?)
  • Login
  • US Flag 
05:15PM EDT


 

Airport Tracker/Info


-or-


 

Live Flight TrackerFlight Track Log ✈ LNE1541 ✈ 30-Aug-2013 ✈ SEQM / UIO - SECU / CUE

Flight Track Log - Related Links

Times and Time Zones

All times are in EDT time to prevent confusion due to time zone crossing. See the LNE1541 flight status page for this flight to view local times or setup timezone preferences in your user account.

Time Position Orientation Groundspeed Altitude Reporting Facility
EDT Latitude Longitude Course Direction KTS MPH feet Rate Location/Type
07:37AM -0.5750 -78.5570 192° South 424 488 26,300  Level FlightAware
07:38AM -0.6320 -78.5690 192° South 413 475 27,600 2,280 Climbing FlightAware
07:38AM -0.7060 -78.5850 192° South 400 460 29,000 1,140 Climbing FlightAware
07:39AM -0.7580 -78.5960 192° South 398 458 29,000  Level FlightAware
07:39AM -0.8220 -78.6090 191° South 400 460 29,000  Level FlightAware
07:40AM -0.8960 -78.6240 191° South 402 463 29,000  Level FlightAware
07:41AM -0.9590 -78.6370 192° South 403 464 29,000  Level FlightAware
07:41AM -1.0330 -78.6530 192° South 403 464 29,000  Level FlightAware
07:42AM -1.0960 -78.6650 191° South 402 463 29,000  Level FlightAware
07:43AM -1.1770 -78.6760 188° South 402 463 29,000  Level FlightAware
07:43AM -1.2350 -78.6840 188° South 402 463 29,000  Level FlightAware
07:44AM -1.3130 -78.6960 189° South 402 463 29,000  Level FlightAware
07:44AM -1.3840 -78.7060 188° South 403 464 29,000  Level FlightAware
07:45AM -1.4460 -78.7150 188° South 403 464 29,000  Level FlightAware
07:46AM -1.5210 -78.7260 188° South 403 464 29,000  Level FlightAware
07:46AM -1.5880 -78.7350 188° South 403 464 29,000  Level FlightAware
07:47AM -1.6620 -78.7460 188° South 403 464 29,000  Level FlightAware
07:47AM -1.7160 -78.7540 188° South 402 463 29,000 -300 Level FlightAware
07:48AM -1.7820 -78.7630 188° South 391 450 28,700 -720 Descending FlightAware
07:49AM -1.8410 -78.7710 188° South 371 427 28,200 -1,080 Descending FlightAware
07:49AM -1.9180 -78.7830 189° South 362 417 27,200 -720 Descending FlightAware
07:50AM -1.9730 -78.7900 187° South 362 417 27,200  Level FlightAware
07:51AM -2.0250 -78.7980 189° South 362 417 27,200  Level FlightAware
07:51AM -2.0770 -78.8050 188° South 362 417 27,200 -2,340 Level FlightAware
07:52AM -2.1670 -78.8180 188° South 349 402 24,200 -3,360 Descending FlightAware
07:53AM -2.2280 -78.8270 188° South 324 373 22,900 -1,020 Descending FlightAware
07:53AM -2.2840 -78.8350 188° South 324 373 22,900  Level FlightAware
07:54AM -2.3300 -78.8410 187° South 324 373 22,900  Level FlightAware
07:55AM -2.3790 -78.8480 188° South 324 373 22,900  Level FlightAware
07:55AM -2.4250 -78.8550 189° South 324 373 22,900 -2,940 Level FlightAware
07:56AM -2.5180 -78.8680 188° South 300 345 19,000 -2,940 Descending FlightAware
07:57AM -2.5620 -78.8730 186° South 300 345 19,000  Level FlightAware
07:57AM -2.6040 -78.8790 188° South 300 345 19,000  Level FlightAware
07:58AM -2.6480 -78.8840 186° South 300 345 19,000  Level FlightAware
07:59AM -2.7040 -78.8910 187° South 300 345 19,000  Level FlightAware
07:59AM -2.7470 -78.8960 187° South 300 345 19,000  Level FlightAware
08:02AM -2.8895 -78.9844 212° Southwest  Level Estimated
08:03AM -2.8895 -78.9844 45° Northeast  Level Estimated
08:04AM -2.8895 -78.9844 45° Northeast  Level Estimated
08:05AM -2.8895 -78.9844 45° Northeast  Level Estimated
08:06AM -2.8895 -78.9844 45° Northeast  Level Estimated
08:07AM -2.8895 -78.9844 45° Northeast  Level Estimated
08:08AM -2.8895 -78.9844 45° Northeast  Level Estimated
08:09AM -2.8895 -78.9844 45° Northeast  Level Estimated
08:10AM -2.8895 -78.9844 45° Northeast  Level Estimated
08:11AM -2.8895 -78.9844 45° Northeast  Level Estimated
08:12AM -2.8895 -78.9844 45° Northeast  Level Estimated
08:13AM -2.8895 -78.9844 45° Northeast  Level Estimated
08:14AM -2.8895 -78.9844 45° Northeast  Level Estimated
08:15AM -2.8895 -78.9844 45° Northeast  Level Estimated